»·PEaware :: N137ZZ KCMA-KSNA

N137ZZ :: KCMA-KSNA

FLIGHT INFORMATION

Flight Status: Arrived
Operator: Privately registered:
United States
More flights under this callsign
Pilot: Craig S. (30742)
Aircraft: CESSNA 172 SKYHAWK
(C172)
More flights by this aircraft type
Origin: KCMA Camarillo
United States
Destination: KSNA John Wayne-Orange Co
United States
More flights between these airports :: More routes between these airports
Route:
File this flight plan on PilotEdge
Remarks: cat-10
Altitude:
(Current/Filed)
5,500ft
Speed:
(Current/Filed)
110kts
Departed: 13-Jan-21 08:46 PM
Arrived: 13-Jan-21 09:31 PM
Distance/Time
Traveled:
69nm/0:45
Distance/Time
To Go:
Arrived

Flight Plot

Page will automatically refresh every two minutes.


Map Options




Map Legend


Flown Route
Filed Route
Departure Airport
Arrival Airport
Navaid (VOR, NDB)
Fix

Horizontal Profiles

Position Reports

Time Latitude Longitude Heading Altitude Ground
Speed
13-Jan-21 20:27 34.210849 -119.072392 314 83ft 0kts
13-Jan-21 20:28 34.210849 -119.072392 314 83ft 0kts
13-Jan-21 20:29 34.210849 -119.072392 314 83ft 0kts
13-Jan-21 20:30 34.210849 -119.072392 314 83ft 0kts
13-Jan-21 20:31 34.210849 -119.072392 314 83ft 0kts
13-Jan-21 20:32 34.210849 -119.072392 314 83ft 0kts
13-Jan-21 20:33 34.210849 -119.072392 314 83ft 0kts
13-Jan-21 20:34 34.210849 -119.072392 314 83ft 0kts
13-Jan-21 20:35 34.210849 -119.072392 314 83ft 0kts
13-Jan-21 20:36 34.210849 -119.072392 314 83ft 0kts
13-Jan-21 20:37 34.210849 -119.072392 314 83ft 0kts
13-Jan-21 20:38 34.210872 -119.072751 255 82ft 4kts
13-Jan-21 20:39 34.210801 -119.074267 273 82ft 13kts
13-Jan-21 20:40 34.210893 -119.078842 271 78ft 8kts
13-Jan-21 20:41 34.210925 -119.082168 271 76ft 24kts
13-Jan-21 20:42 34.212276 -119.084615 0 75ft 16kts
13-Jan-21 20:43 34.212803 -119.084618 359 76ft 0kts
13-Jan-21 20:44 34.212804 -119.084618 358 76ft 0kts
13-Jan-21 20:45 34.213738 -119.094158 269 244ft 83kts
13-Jan-21 20:46 34.222632 -119.115160 43 1218ft 95kts
13-Jan-21 20:47 34.225309 -119.082527 93 2208ft 97kts
13-Jan-21 20:48 34.226202 -119.047222 85 3170ft 96kts
13-Jan-21 20:49 34.229453 -119.013697 79 4041ft 97kts
13-Jan-21 20:50 34.233260 -118.980975 87 4837ft 98kts
13-Jan-21 20:51 34.231693 -118.947635 99 5509ft 99kts
13-Jan-21 20:52 34.229581 -118.911143 95 5509ft 105kts
13-Jan-21 20:53 34.228121 -118.874016 91 5505ft 105kts
13-Jan-21 20:54 34.224735 -118.838402 101 5546ft 101kts
13-Jan-21 20:55 34.220039 -118.804127 100 5526ft 106kts
13-Jan-21 20:56 34.214327 -118.766831 101 5466ft 110kts
13-Jan-21 20:57 34.207069 -118.729855 102 5522ft 107kts
13-Jan-21 20:58 34.200427 -118.690960 101 5499ft 111kts
13-Jan-21 20:59 34.192486 -118.652138 100 5462ft 111kts
13-Jan-21 21:00 34.187190 -118.613487 96 5489ft 109kts
13-Jan-21 21:01 34.182966 -118.574937 99 5484ft 110kts
13-Jan-21 21:02 34.167822 -118.545776 166 5490ft 108kts
13-Jan-21 21:03 34.139771 -118.533789 159 5513ft 111kts
13-Jan-21 21:04 34.110851 -118.519170 156 5521ft 111kts
13-Jan-21 21:05 34.080393 -118.503599 158 5526ft 109kts
13-Jan-21 21:07 34.050688 -118.488925 156 5513ft 111kts
13-Jan-21 21:08 34.020061 -118.474168 160 5487ft 111kts
13-Jan-21 21:09 33.990272 -118.460158 159 5515ft 108kts
13-Jan-21 21:10 33.961476 -118.448472 162 5539ft 108kts
13-Jan-21 21:11 33.932590 -118.437196 141 5527ft 110kts
13-Jan-21 21:12 33.909048 -118.412274 137 5541ft 109kts
13-Jan-21 21:13 33.886810 -118.384958 134 5480ft 113kts
13-Jan-21 21:14 33.863064 -118.357821 137 5482ft 110kts
13-Jan-21 21:15 33.839084 -118.332847 138 5517ft 108kts
13-Jan-21 21:16 33.816456 -118.308213 138 5537ft 109kts
13-Jan-21 21:17 33.792601 -118.284100 144 5449ft 113kts
13-Jan-21 21:18 33.768284 -118.261832 144 5471ft 111kts
13-Jan-21 21:19 33.749556 -118.234635 100 5467ft 109kts
13-Jan-21 21:20 33.744644 -118.195145 98 4755ft 123kts
13-Jan-21 21:21 33.737968 -118.152362 102 3799ft 130kts
13-Jan-21 21:21 33.731825 -118.115982 103 3466ft 123kts
13-Jan-21 21:23 33.718371 -118.068103 102 3445ft 112kts
13-Jan-21 21:24 33.709554 -118.028507 107 3262ft 126kts
13-Jan-21 21:24 33.700777 -117.992417 106 2062ft 129kts
13-Jan-21 21:26 33.687135 -117.946421 111 1021ft 102kts
13-Jan-21 21:26 33.679823 -117.917855 98 973ft 102kts
13-Jan-21 21:27 33.677837 -117.882509 72 900ft 96kts
13-Jan-21 21:28 33.695313 -117.861174 120 597ft 96kts
13-Jan-21 21:29 33.676514 -117.868333 208 60ft 49kts
13-Jan-21 21:30 33.674270 -117.870901 294 60ft 0kts
13-Jan-21 21:31 33.674783 -117.871841 320 60ft 10kts

Navigation Log

Ident Type
Flight plan parsing failed, navigation log unavailable